sensor_id;sensor_type;location;lat;lon;timestamp;P1;durP1;ratioP1;P2;durP2;ratioP2
28481;SDS011;15703;49.588;6.260;2022-09-09T00:01:04;5.97;;;1.60;;
28481;SDS011;15703;49.588;6.260;2022-09-09T00:03:43;6.47;;;1.77;;
28481;SDS011;15703;49.588;6.260;2022-09-09T00:08:42;8.27;;;1.73;;
28481;SDS011;15703;49.588;6.260;2022-09-09T00:11:07;4.15;;;1.50;;
28481;SDS011;15703;49.588;6.260;2022-09-09T00:16:17;4.30;;;1.73;;
28481;SDS011;15703;49.588;6.260;2022-09-09T00:18:47;4.60;;;1.60;;
28481;SDS011;15703;49.588;6.260;2022-09-09T00:21:13;3.80;;;1.52;;
28481;SDS011;15703;49.588;6.260;2022-09-09T00:23:39;3.80;;;1.42;;
28481;SDS011;15703;49.588;6.260;2022-09-09T00:26:22;3.70;;;1.50;;
28481;SDS011;15703;49.588;6.260;2022-09-09T00:31:20;6.67;;;1.77;;
28481;SDS011;15703;49.588;6.260;2022-09-09T00:33:44;4.68;;;1.50;;
28481;SDS011;15703;49.588;6.260;2022-09-09T00:36:09;6.75;;;1.98;;
28481;SDS011;15703;49.588;6.260;2022-09-09T00:38:33;7.35;;;1.80;;
28481;SDS011;15703;49.588;6.260;2022-09-09T00:43:40;6.38;;;1.55;;
28481;SDS011;15703;49.588;6.260;2022-09-09T00:46:13;6.40;;;1.48;;
28481;SDS011;15703;49.588;6.260;2022-09-09T00:51:22;4.22;;;1.40;;
28481;SDS011;15703;49.588;6.260;2022-09-09T00:56:13;3.40;;;1.42;;
28481;SDS011;15703;49.588;6.260;2022-09-09T00:58:37;4.88;;;1.40;;
28481;SDS011;15703;49.588;6.260;2022-09-09T01:01:09;6.55;;;2.00;;
28481;SDS011;15703;49.588;6.260;2022-09-09T01:03:34;4.05;;;1.50;;
28481;SDS011;15703;49.588;6.260;2022-09-09T01:08:37;4.30;;;1.50;;
28481;SDS011;15703;49.588;6.260;2022-09-09T01:11:01;2.67;;;1.38;;
28481;SDS011;15703;49.588;6.260;2022-09-09T01:13:27;5.70;;;1.55;;
28481;SDS011;15703;49.588;6.260;2022-09-09T01:15:59;2.78;;;1.48;;
28481;SDS011;15703;49.588;6.260;2022-09-09T01:18:27;4.35;;;1.73;;
28481;SDS011;15703;49.588;6.260;2022-09-09T01:23:38;5.97;;;1.38;;
28481;SDS011;15703;49.588;6.260;2022-09-09T01:28:43;4.43;;;1.65;;
28481;SDS011;15703;49.588;6.260;2022-09-09T01:31:09;4.83;;;1.53;;
28481;SDS011;15703;49.588;6.260;2022-09-09T01:33:37;4.00;;;1.48;;
28481;SDS011;15703;49.588;6.260;2022-09-09T01:36:02;6.93;;;1.53;;
28481;SDS011;15703;49.588;6.260;2022-09-09T01:38:33;10.60;;;2.15;;
28481;SDS011;15703;49.588;6.260;2022-09-09T01:40:57;3.63;;;1.63;;
28481;SDS011;15703;49.588;6.260;2022-09-09T01:43:28;4.38;;;1.45;;
28481;SDS011;15703;49.588;6.260;2022-09-09T01:45:53;6.00;;;1.70;;
28481;SDS011;15703;49.588;6.260;2022-09-09T01:49:18;3.40;;;1.80;;
28481;SDS011;15703;49.588;6.260;2022-09-09T01:51:40;5.28;;;1.30;;
28481;SDS011;15703;49.588;6.260;2022-09-09T01:54:06;4.85;;;1.27;;
28481;SDS011;15703;49.588;6.260;2022-09-09T02:03:57;5.82;;;1.60;;
28481;SDS011;15703;49.588;6.260;2022-09-09T02:06:35;4.93;;;1.70;;
28481;SDS011;15703;49.588;6.260;2022-09-09T02:09:15;7.88;;;1.75;;
28481;SDS011;15703;49.588;6.260;2022-09-09T02:11:41;4.50;;;1.60;;
28481;SDS011;15703;49.588;6.260;2022-09-09T02:14:18;9.18;;;1.52;;
28481;SDS011;15703;49.588;6.260;2022-09-09T02:16:51;4.47;;;1.48;;
28481;SDS011;15703;49.588;6.260;2022-09-09T02:19:18;4.80;;;1.88;;
28481;SDS011;15703;49.588;6.260;2022-09-09T02:21:59;4.23;;;1.80;;
28481;SDS011;15703;49.588;6.260;2022-09-09T02:24:22;5.75;;;1.50;;
28481;SDS011;15703;49.588;6.260;2022-09-09T02:26:54;6.88;;;1.73;;
28481;SDS011;15703;49.588;6.260;2022-09-09T02:29:21;5.63;;;1.60;;
28481;SDS011;15703;49.588;6.260;2022-09-09T02:31:45;3.45;;;1.50;;
28481;SDS011;15703;49.588;6.260;2022-09-09T02:34:13;5.15;;;1.40;;
28481;SDS011;15703;49.588;6.260;2022-09-09T02:36:36;4.60;;;1.60;;
28481;SDS011;15703;49.588;6.260;2022-09-09T02:39:00;5.45;;;1.60;;
28481;SDS011;15703;49.588;6.260;2022-09-09T02:41:28;3.72;;;1.30;;
28481;SDS011;15703;49.588;6.260;2022-09-09T02:43:53;4.80;;;1.65;;
28481;SDS011;15703;49.588;6.260;2022-09-09T02:51:10;3.13;;;1.27;;
28481;SDS011;15703;49.588;6.260;2022-09-09T02:53:41;7.68;;;2.00;;
28481;SDS011;15703;49.588;6.260;2022-09-09T02:56:08;4.53;;;1.63;;
28481;SDS011;15703;49.588;6.260;2022-09-09T02:58:34;5.20;;;1.30;;
28481;SDS011;15703;49.588;6.260;2022-09-09T03:00:59;5.72;;;2.05;;
28481;SDS011;15703;49.588;6.260;2022-09-09T03:03:25;6.95;;;1.38;;
28481;SDS011;15703;49.588;6.260;2022-09-09T03:05:49;6.65;;;1.45;;
28481;SDS011;15703;49.588;6.260;2022-09-09T03:08:12;5.15;;;1.52;;
28481;SDS011;15703;49.588;6.260;2022-09-09T03:10:36;3.20;;;1.17;;
28481;SDS011;15703;49.588;6.260;2022-09-09T03:12:58;5.13;;;1.60;;
28481;SDS011;15703;49.588;6.260;2022-09-09T03:15:23;3.63;;;1.30;;
28481;SDS011;15703;49.588;6.260;2022-09-09T03:17:50;1.55;;;0.98;;
28481;SDS011;15703;49.588;6.260;2022-09-09T03:20:13;3.30;;;1.10;;
28481;SDS011;15703;49.588;6.260;2022-09-09T03:22:36;6.85;;;1.50;;
28481;SDS011;15703;49.588;6.260;2022-09-09T03:24:59;4.28;;;1.45;;
28481;SDS011;15703;49.588;6.260;2022-09-09T03:27:22;5.65;;;1.58;;
28481;SDS011;15703;49.588;6.260;2022-09-09T03:29:45;7.55;;;1.52;;
28481;SDS011;15703;49.588;6.260;2022-09-09T03:32:13;3.53;;;1.33;;
28481;SDS011;15703;49.588;6.260;2022-09-09T03:34:38;3.90;;;1.40;;
28481;SDS011;15703;49.588;6.260;2022-09-09T03:37:04;6.38;;;1.30;;
28481;SDS011;15703;49.588;6.260;2022-09-09T03:39:27;3.72;;;1.20;;
28481;SDS011;15703;49.588;6.260;2022-09-09T03:41:50;3.78;;;1.83;;
28481;SDS011;15703;49.588;6.260;2022-09-09T03:44:12;8.45;;;1.60;;
28481;SDS011;15703;49.588;6.260;2022-09-09T03:46:36;3.28;;;1.52;;
28481;SDS011;15703;49.588;6.260;2022-09-09T03:48:59;4.03;;;1.38;;
28481;SDS011;15703;49.588;6.260;2022-09-09T03:51:24;5.60;;;1.92;;
28481;SDS011;15703;49.588;6.260;2022-09-09T03:53:47;7.80;;;1.98;;
28481;SDS011;15703;49.588;6.260;2022-09-09T03:56:10;6.22;;;1.45;;
28481;SDS011;15703;49.588;6.260;2022-09-09T03:58:36;6.20;;;1.85;;
28481;SDS011;15703;49.588;6.260;2022-09-09T04:01:04;4.78;;;1.40;;
28481;SDS011;15703;49.588;6.260;2022-09-09T04:03:28;4.60;;;1.75;;
28481;SDS011;15703;49.588;6.260;2022-09-09T04:05:51;3.17;;;1.23;;
28481;SDS011;15703;49.588;6.260;2022-09-09T04:08:14;3.15;;;1.55;;
28481;SDS011;15703;49.588;6.260;2022-09-09T04:10:37;8.27;;;1.77;;
28481;SDS011;15703;49.588;6.260;2022-09-09T04:12:59;5.75;;;1.98;;
28481;SDS011;15703;49.588;6.260;2022-09-09T04:15:21;3.30;;;1.70;;
28481;SDS011;15703;49.588;6.260;2022-09-09T04:17:44;4.95;;;1.50;;
28481;SDS011;15703;49.588;6.260;2022-09-09T04:20:08;6.07;;;1.67;;
28481;SDS011;15703;49.588;6.260;2022-09-09T04:22:33;3.97;;;1.52;;
28481;SDS011;15703;49.588;6.260;2022-09-09T04:24:55;4.35;;;1.52;;
28481;SDS011;15703;49.588;6.260;2022-09-09T04:27:19;4.67;;;1.57;;
28481;SDS011;15703;49.588;6.260;2022-09-09T04:29:41;4.47;;;1.52;;
28481;SDS011;15703;49.588;6.260;2022-09-09T04:32:03;10.27;;;2.22;;
28481;SDS011;15703;49.588;6.260;2022-09-09T04:34:27;4.27;;;1.47;;
28481;SDS011;15703;49.588;6.260;2022-09-09T04:36:50;3.93;;;1.40;;
28481;SDS011;15703;49.588;6.260;2022-09-09T04:39:13;3.92;;;1.40;;
28481;SDS011;15703;49.588;6.260;2022-09-09T04:41:35;3.83;;;1.60;;
28481;SDS011;15703;49.588;6.260;2022-09-09T04:43:59;8.32;;;1.92;;
28481;SDS011;15703;49.588;6.260;2022-09-09T04:46:22;5.18;;;1.52;;
28481;SDS011;15703;49.588;6.260;2022-09-09T04:48:45;4.63;;;1.50;;
28481;SDS011;15703;49.588;6.260;2022-09-09T04:51:09;6.70;;;1.80;;
28481;SDS011;15703;49.588;6.260;2022-09-09T04:53:33;5.75;;;2.17;;
28481;SDS011;15703;49.588;6.260;2022-09-09T04:56:07;4.97;;;1.48;;
28481;SDS011;15703;49.588;6.260;2022-09-09T04:58:36;7.17;;;1.90;;
28481;SDS011;15703;49.588;6.260;2022-09-09T05:01:09;6.35;;;2.08;;
28481;SDS011;15703;49.588;6.260;2022-09-09T05:03:34;8.90;;;2.00;;
28481;SDS011;15703;49.588;6.260;2022-09-09T05:06:08;3.92;;;1.63;;
28481;SDS011;15703;49.588;6.260;2022-09-09T05:08:32;8.82;;;1.52;;
28481;SDS011;15703;49.588;6.260;2022-09-09T05:10:54;5.68;;;2.20;;
28481;SDS011;15703;49.588;6.260;2022-09-09T05:13:16;5.32;;;1.80;;
28481;SDS011;15703;49.588;6.260;2022-09-09T05:15:39;4.13;;;1.88;;
28481;SDS011;15703;49.588;6.260;2022-09-09T05:18:01;6.85;;;2.17;;
28481;SDS011;15703;49.588;6.260;2022-09-09T05:20:26;3.65;;;1.67;;
28481;SDS011;15703;49.588;6.260;2022-09-09T05:22:48;6.20;;;2.05;;
28481;SDS011;15703;49.588;6.260;2022-09-09T05:25:15;6.85;;;1.88;;
28481;SDS011;15703;49.588;6.260;2022-09-09T05:27:38;5.22;;;1.58;;
28481;SDS011;15703;49.588;6.260;2022-09-09T05:30:00;5.55;;;1.95;;
28481;SDS011;15703;49.588;6.260;2022-09-09T05:32:23;7.68;;;2.13;;
28481;SDS011;15703;49.588;6.260;2022-09-09T05:34:45;7.90;;;2.15;;
28481;SDS011;15703;49.588;6.260;2022-09-09T05:37:09;9.20;;;2.30;;
28481;SDS011;15703;49.588;6.260;2022-09-09T05:39:31;9.15;;;2.58;;
28481;SDS011;15703;49.588;6.260;2022-09-09T05:41:54;3.47;;;1.48;;
28481;SDS011;15703;49.588;6.260;2022-09-09T05:44:16;5.25;;;1.88;;
28481;SDS011;15703;49.588;6.260;2022-09-09T05:46:40;7.78;;;2.40;;
28481;SDS011;15703;49.588;6.260;2022-09-09T05:49:03;8.07;;;2.30;;
28481;SDS011;15703;49.588;6.260;2022-09-09T05:51:28;8.98;;;1.73;;
28481;SDS011;15703;49.588;6.260;2022-09-09T05:53:58;10.52;;;2.55;;
28481;SDS011;15703;49.588;6.260;2022-09-09T05:56:25;8.27;;;2.45;;
28481;SDS011;15703;49.588;6.260;2022-09-09T05:58:49;5.20;;;1.90;;
28481;SDS011;15703;49.588;6.260;2022-09-09T06:01:14;6.57;;;2.03;;
28481;SDS011;15703;49.588;6.260;2022-09-09T06:03:37;7.82;;;2.17;;
28481;SDS011;15703;49.588;6.260;2022-09-09T06:06:00;7.63;;;1.73;;
28481;SDS011;15703;49.588;6.260;2022-09-09T06:08:23;10.50;;;1.80;;
28481;SDS011;15703;49.588;6.260;2022-09-09T06:10:46;6.30;;;2.45;;
28481;SDS011;15703;49.588;6.260;2022-09-09T06:13:08;7.22;;;2.22;;
28481;SDS011;15703;49.588;6.260;2022-09-09T06:15:32;6.80;;;2.60;;
28481;SDS011;15703;49.588;6.260;2022-09-09T06:17:56;10.75;;;2.92;;
28481;SDS011;15703;49.588;6.260;2022-09-09T06:20:19;6.57;;;2.22;;
28481;SDS011;15703;49.588;6.260;2022-09-09T06:22:43;7.60;;;1.75;;
28481;SDS011;15703;49.588;6.260;2022-09-09T06:25:10;7.25;;;1.92;;
28481;SDS011;15703;49.588;6.260;2022-09-09T06:27:33;8.48;;;2.28;;
28481;SDS011;15703;49.588;6.260;2022-09-09T06:29:55;5.18;;;1.85;;
28481;SDS011;15703;49.588;6.260;2022-09-09T06:32:18;8.60;;;2.28;;
28481;SDS011;15703;49.588;6.260;2022-09-09T06:34:41;7.18;;;2.08;;
28481;SDS011;15703;49.588;6.260;2022-09-09T06:37:04;5.88;;;2.08;;
28481;SDS011;15703;49.588;6.260;2022-09-09T06:39:35;6.68;;;1.80;;
28481;SDS011;15703;49.588;6.260;2022-09-09T06:41:57;6.63;;;2.00;;
28481;SDS011;15703;49.588;6.260;2022-09-09T06:44:38;7.90;;;2.15;;
28481;SDS011;15703;49.588;6.260;2022-09-09T06:47:06;5.88;;;1.83;;
28481;SDS011;15703;49.588;6.260;2022-09-09T06:49:28;7.22;;;1.60;;
28481;SDS011;15703;49.588;6.260;2022-09-09T06:51:50;10.48;;;2.55;;
28481;SDS011;15703;49.588;6.260;2022-09-09T06:54:14;6.57;;;2.00;;
28481;SDS011;15703;49.588;6.260;2022-09-09T06:56:39;7.03;;;1.67;;
28481;SDS011;15703;49.588;6.260;2022-09-09T06:59:09;4.90;;;1.40;;
28481;SDS011;15703;49.588;6.260;2022-09-09T07:01:39;4.25;;;1.33;;
28481;SDS011;15703;49.588;6.260;2022-09-09T07:04:05;4.82;;;1.70;;
28481;SDS011;15703;49.588;6.260;2022-09-09T07:06:31;5.70;;;1.45;;
28481;SDS011;15703;49.588;6.260;2022-09-09T07:08:59;7.00;;;1.73;;
28481;SDS011;15703;49.588;6.260;2022-09-09T07:11:24;5.65;;;2.05;;
28481;SDS011;15703;49.588;6.260;2022-09-09T07:13:48;7.80;;;1.85;;
28481;SDS011;15703;49.588;6.260;2022-09-09T07:16:12;9.52;;;2.70;;
28481;SDS011;15703;49.588;6.260;2022-09-09T07:18:35;10.35;;;1.95;;
28481;SDS011;15703;49.588;6.260;2022-09-09T07:20:57;7.93;;;2.00;;
28481;SDS011;15703;49.588;6.260;2022-09-09T07:23:20;7.53;;;2.33;;
28481;SDS011;15703;49.588;6.260;2022-09-09T07:25:49;6.07;;;2.13;;
28481;SDS011;15703;49.588;6.260;2022-09-09T07:28:13;7.65;;;2.20;;
28481;SDS011;15703;49.588;6.260;2022-09-09T07:30:36;7.50;;;1.90;;
28481;SDS011;15703;49.588;6.260;2022-09-09T07:32:58;5.35;;;1.55;;
28481;SDS011;15703;49.588;6.260;2022-09-09T07:35:21;7.95;;;2.25;;
28481;SDS011;15703;49.588;6.260;2022-09-09T07:37:44;6.13;;;1.60;;
28481;SDS011;15703;49.588;6.260;2022-09-09T07:40:12;6.78;;;1.60;;
28481;SDS011;15703;49.588;6.260;2022-09-09T07:42:35;8.73;;;2.05;;
28481;SDS011;15703;49.588;6.260;2022-09-09T07:44:58;11.00;;;1.90;;
28481;SDS011;15703;49.588;6.260;2022-09-09T07:47:24;7.88;;;1.90;;
28481;SDS011;15703;49.588;6.260;2022-09-09T07:49:47;7.38;;;1.92;;
28481;SDS011;15703;49.588;6.260;2022-09-09T07:52:15;9.93;;;2.22;;
28481;SDS011;15703;49.588;6.260;2022-09-09T07:54:45;5.65;;;1.90;;
28481;SDS011;15703;49.588;6.260;2022-09-09T07:57:08;5.45;;;1.60;;
28481;SDS011;15703;49.588;6.260;2022-09-09T07:59:33;7.60;;;2.17;;
28481;SDS011;15703;49.588;6.260;2022-09-09T08:01:57;7.10;;;1.98;;
28481;SDS011;15703;49.588;6.260;2022-09-09T08:04:24;6.78;;;1.90;;
28481;SDS011;15703;49.588;6.260;2022-09-09T08:06:57;9.18;;;1.80;;
28481;SDS011;15703;49.588;6.260;2022-09-09T08:09:22;7.78;;;1.88;;
28481;SDS011;15703;49.588;6.260;2022-09-09T08:11:49;4.75;;;1.42;;
28481;SDS011;15703;49.588;6.260;2022-09-09T08:14:12;7.00;;;2.10;;
28481;SDS011;15703;49.588;6.260;2022-09-09T08:16:37;6.65;;;1.88;;
28481;SDS011;15703;49.588;6.260;2022-09-09T08:18:59;8.93;;;2.22;;
28481;SDS011;15703;49.588;6.260;2022-09-09T08:21:26;11.32;;;1.85;;
28481;SDS011;15703;49.588;6.260;2022-09-09T08:23:51;8.45;;;1.92;;
28481;SDS011;15703;49.588;6.260;2022-09-09T08:26:22;7.60;;;1.70;;
28481;SDS011;15703;49.588;6.260;2022-09-09T08:28:44;6.03;;;1.98;;
28481;SDS011;15703;49.588;6.260;2022-09-09T08:31:13;5.47;;;1.27;;
28481;SDS011;15703;49.588;6.260;2022-09-09T08:33:35;8.02;;;1.50;;
28481;SDS011;15703;49.588;6.260;2022-09-09T08:36:00;11.60;;;2.70;;
28481;SDS011;15703;49.588;6.260;2022-09-09T08:38:22;7.95;;;2.05;;
28481;SDS011;15703;49.588;6.260;2022-09-09T08:40:45;8.68;;;2.08;;
28481;SDS011;15703;49.588;6.260;2022-09-09T08:43:11;7.28;;;1.60;;
28481;SDS011;15703;49.588;6.260;2022-09-09T08:45:37;7.18;;;1.85;;
28481;SDS011;15703;49.588;6.260;2022-09-09T08:48:23;6.70;;;2.17;;
28481;SDS011;15703;49.588;6.260;2022-09-09T08:50:51;7.38;;;1.60;;
28481;SDS011;15703;49.588;6.260;2022-09-09T08:53:21;9.00;;;2.00;;
28481;SDS011;15703;49.588;6.260;2022-09-09T08:55:48;9.68;;;2.42;;
28481;SDS011;15703;49.588;6.260;2022-09-09T08:58:23;7.28;;;1.80;;
28481;SDS011;15703;49.588;6.260;2022-09-09T09:03:23;6.75;;;1.73;;
28481;SDS011;15703;49.588;6.260;2022-09-09T09:05:57;5.75;;;1.65;;
28481;SDS011;15703;49.588;6.260;2022-09-09T09:13:24;4.55;;;1.38;;
28481;SDS011;15703;49.588;6.260;2022-09-09T09:15:55;3.75;;;1.40;;
28481;SDS011;15703;49.588;6.260;2022-09-09T09:18:20;3.97;;;1.30;;
28481;SDS011;15703;49.588;6.260;2022-09-09T09:23:21;5.32;;;1.33;;
28481;SDS011;15703;49.588;6.260;2022-09-09T09:25:44;6.90;;;1.58;;
28481;SDS011;15703;49.588;6.260;2022-09-09T09:28:17;5.60;;;1.05;;
28481;SDS011;15703;49.588;6.260;2022-09-09T09:33:34;1.95;;;0.93;;
28481;SDS011;15703;49.588;6.260;2022-09-09T09:35:58;4.28;;;0.88;;
28481;SDS011;15703;49.588;6.260;2022-09-09T09:38:26;6.78;;;1.50;;
28481;SDS011;15703;49.588;6.260;2022-09-09T09:41:09;4.03;;;1.20;;
28481;SDS011;15703;49.588;6.260;2022-09-09T09:43:32;6.05;;;1.40;;
28481;SDS011;15703;49.588;6.260;2022-09-09T09:45:59;5.13;;;1.23;;
28481;SDS011;15703;49.588;6.260;2022-09-09T09:48:40;5.20;;;1.40;;
28481;SDS011;15703;49.588;6.260;2022-09-09T09:51:08;2.92;;;1.25;;
28481;SDS011;15703;49.588;6.260;2022-09-09T09:53:33;3.95;;;1.23;;
28481;SDS011;15703;49.588;6.260;2022-09-09T09:56:01;3.55;;;1.20;;
28481;SDS011;15703;49.588;6.260;2022-09-09T09:58:24;5.45;;;1.55;;
28481;SDS011;15703;49.588;6.260;2022-09-09T10:00:51;5.63;;;1.35;;
28481;SDS011;15703;49.588;6.260;2022-09-09T10:03:25;3.50;;;1.15;;
28481;SDS011;15703;49.588;6.260;2022-09-09T10:05:49;2.50;;;0.77;;
28481;SDS011;15703;49.588;6.260;2022-09-09T10:08:16;3.53;;;0.80;;
28481;SDS011;15703;49.588;6.260;2022-09-09T10:10:50;5.55;;;1.02;;
28481;SDS011;15703;49.588;6.260;2022-09-09T10:13:15;4.47;;;1.05;;
28481;SDS011;15703;49.588;6.260;2022-09-09T10:18:30;3.08;;;1.00;;
28481;SDS011;15703;49.588;6.260;2022-09-09T10:21:10;2.75;;;0.85;;
28481;SDS011;15703;49.588;6.260;2022-09-09T10:26:38;4.68;;;1.33;;
28481;SDS011;15703;49.588;6.260;2022-09-09T10:36:52;5.22;;;1.17;;
28481;SDS011;15703;49.588;6.260;2022-09-09T10:52:30;4.93;;;1.58;;
28481;SDS011;15703;49.588;6.260;2022-09-09T10:56:56;5.18;;;1.40;;
28481;SDS011;15703;49.588;6.260;2022-09-09T10:59:33;1.77;;;0.93;;
28481;SDS011;15703;49.588;6.260;2022-09-09T11:02:02;3.30;;;0.90;;
28481;SDS011;15703;49.588;6.260;2022-09-09T11:04:28;5.07;;;0.98;;
28481;SDS011;15703;49.588;6.260;2022-09-09T11:06:55;3.92;;;0.85;;
28481;SDS011;15703;49.588;6.260;2022-09-09T11:09:19;2.35;;;0.73;;
28481;SDS011;15703;49.588;6.260;2022-09-09T11:11:49;3.30;;;0.90;;
28481;SDS011;15703;49.588;6.260;2022-09-09T11:16:42;3.45;;;0.60;;
28481;SDS011;15703;49.588;6.260;2022-09-09T11:19:11;1.75;;;0.43;;
28481;SDS011;15703;49.588;6.260;2022-09-09T11:21:37;2.00;;;0.70;;
28481;SDS011;15703;49.588;6.260;2022-09-09T11:24:02;1.77;;;0.70;;
28481;SDS011;15703;49.588;6.260;2022-09-09T11:26:30;1.60;;;0.60;;
28481;SDS011;15703;49.588;6.260;2022-09-09T11:34:07;3.40;;;0.80;;
28481;SDS011;15703;49.588;6.260;2022-09-09T11:41:55;3.60;;;0.80;;
28481;SDS011;15703;49.588;6.260;2022-09-09T11:44:29;2.45;;;0.90;;
28481;SDS011;15703;49.588;6.260;2022-09-09T11:46:52;2.72;;;0.63;;
28481;SDS011;15703;49.588;6.260;2022-09-09T11:49:27;4.38;;;0.85;;
28481;SDS011;15703;49.588;6.260;2022-09-09T11:51:50;2.63;;;0.80;;
28481;SDS011;15703;49.588;6.260;2022-09-09T11:54:32;1.52;;;0.90;;
28481;SDS011;15703;49.588;6.260;2022-09-09T11:56:54;5.43;;;1.00;;
28481;SDS011;15703;49.588;6.260;2022-09-09T12:01:43;5.20;;;0.85;;
28481;SDS011;15703;49.588;6.260;2022-09-09T12:04:27;4.30;;;1.10;;
28481;SDS011;15703;49.588;6.260;2022-09-09T12:06:56;3.13;;;0.88;;
28481;SDS011;15703;49.588;6.260;2022-09-09T12:09:24;3.10;;;1.10;;
28481;SDS011;15703;49.588;6.260;2022-09-09T12:11:47;3.13;;;1.17;;
28481;SDS011;15703;49.588;6.260;2022-09-09T12:14:20;3.30;;;0.85;;
28481;SDS011;15703;49.588;6.260;2022-09-09T12:16:43;5.45;;;1.42;;
28481;SDS011;15703;49.588;6.260;2022-09-09T12:21:36;3.38;;;1.30;;
28481;SDS011;15703;49.588;6.260;2022-09-09T12:24:13;4.57;;;1.15;;
28481;SDS011;15703;49.588;6.260;2022-09-09T12:26:52;3.28;;;0.98;;
28481;SDS011;15703;49.588;6.260;2022-09-09T12:34:14;4.30;;;1.08;;
28481;SDS011;15703;49.588;6.260;2022-09-09T12:36:37;1.88;;;0.82;;
28481;SDS011;15703;49.588;6.260;2022-09-09T12:39:10;3.78;;;0.80;;
28481;SDS011;15703;49.588;6.260;2022-09-09T12:41:37;2.60;;;0.80;;
28481;SDS011;15703;49.588;6.260;2022-09-09T12:44:05;5.22;;;1.20;;
28481;SDS011;15703;49.588;6.260;2022-09-09T12:46:32;3.90;;;0.77;;
28481;SDS011;15703;49.588;6.260;2022-09-09T12:48:55;2.55;;;0.93;;
28481;SDS011;15703;49.588;6.260;2022-09-09T12:51:19;2.13;;;1.00;;
28481;SDS011;15703;49.588;6.260;2022-09-09T12:53:42;3.38;;;0.68;;
28481;SDS011;15703;49.588;6.260;2022-09-09T12:56:08;2.88;;;0.77;;
28481;SDS011;15703;49.588;6.260;2022-09-09T12:58:31;2.25;;;0.73;;
28481;SDS011;15703;49.588;6.260;2022-09-09T13:00:55;2.38;;;1.23;;
28481;SDS011;15703;49.588;6.260;2022-09-09T13:03:20;2.15;;;0.85;;
28481;SDS011;15703;49.588;6.260;2022-09-09T13:05:43;8.45;;;1.52;;
28481;SDS011;15703;49.588;6.260;2022-09-09T13:08:09;4.50;;;0.80;;
28481;SDS011;15703;49.588;6.260;2022-09-09T13:10:33;4.18;;;0.65;;
28481;SDS011;15703;49.588;6.260;2022-09-09T13:13:19;1.73;;;0.60;;
28481;SDS011;15703;49.588;6.260;2022-09-09T13:15:49;0.95;;;0.50;;
28481;SDS011;15703;49.588;6.260;2022-09-09T13:18:12;1.63;;;0.55;;
28481;SDS011;15703;49.588;6.260;2022-09-09T13:20:35;2.80;;;0.70;;
28481;SDS011;15703;49.588;6.260;2022-09-09T13:22:58;2.75;;;0.80;;
28481;SDS011;15703;49.588;6.260;2022-09-09T13:25:27;2.90;;;0.90;;
28481;SDS011;15703;49.588;6.260;2022-09-09T13:27:54;2.17;;;0.85;;
28481;SDS011;15703;49.588;6.260;2022-09-09T13:30:38;3.22;;;0.95;;
28481;SDS011;15703;49.588;6.260;2022-09-09T13:35:35;6.70;;;1.60;;
28481;SDS011;15703;49.588;6.260;2022-09-09T13:38:08;8.40;;;1.25;;
28481;SDS011;15703;49.588;6.260;2022-09-09T13:40:30;4.93;;;1.20;;
28481;SDS011;15703;49.588;6.260;2022-09-09T13:42:56;4.72;;;1.33;;
28481;SDS011;15703;49.588;6.260;2022-09-09T13:45:20;2.65;;;1.00;;
28481;SDS011;15703;49.588;6.260;2022-09-09T13:47:42;3.53;;;1.17;;
28481;SDS011;15703;49.588;6.260;2022-09-09T13:50:22;2.65;;;1.25;;
28481;SDS011;15703;49.588;6.260;2022-09-09T13:52:45;3.83;;;1.60;;
28481;SDS011;15703;49.588;6.260;2022-09-09T13:55:08;4.38;;;1.40;;
28481;SDS011;15703;49.588;6.260;2022-09-09T13:57:31;4.03;;;1.33;;
28481;SDS011;15703;49.588;6.260;2022-09-09T13:59:53;9.68;;;2.20;;
28481;SDS011;15703;49.588;6.260;2022-09-09T14:02:26;5.63;;;1.25;;
28481;SDS011;15703;49.588;6.260;2022-09-09T14:04:49;3.10;;;1.30;;
28481;SDS011;15703;49.588;6.260;2022-09-09T14:07:16;2.70;;;1.58;;
28481;SDS011;15703;49.588;6.260;2022-09-09T14:09:39;2.72;;;1.33;;
28481;SDS011;15703;49.588;6.260;2022-09-09T14:12:01;5.80;;;1.63;;
28481;SDS011;15703;49.588;6.260;2022-09-09T14:14:24;6.03;;;1.48;;
28481;SDS011;15703;49.588;6.260;2022-09-09T14:16:47;4.70;;;1.45;;
28481;SDS011;15703;49.588;6.260;2022-09-09T14:19:09;2.08;;;1.17;;
28481;SDS011;15703;49.588;6.260;2022-09-09T14:21:31;4.63;;;1.33;;
28481;SDS011;15703;49.588;6.260;2022-09-09T14:23:53;5.32;;;1.50;;
28481;SDS011;15703;49.588;6.260;2022-09-09T14:26:16;3.10;;;1.50;;
28481;SDS011;15703;49.588;6.260;2022-09-09T14:28:40;3.58;;;1.58;;
28481;SDS011;15703;49.588;6.260;2022-09-09T14:31:16;1.92;;;0.90;;
28481;SDS011;15703;49.588;6.260;2022-09-09T14:33:39;7.32;;;1.23;;
28481;SDS011;15703;49.588;6.260;2022-09-09T14:36:02;4.40;;;1.35;;
28481;SDS011;15703;49.588;6.260;2022-09-09T14:38:25;4.28;;;1.60;;
28481;SDS011;15703;49.588;6.260;2022-09-09T14:40:57;2.75;;;1.15;;
28481;SDS011;15703;49.588;6.260;2022-09-09T14:43:20;3.58;;;1.05;;
28481;SDS011;15703;49.588;6.260;2022-09-09T14:45:43;6.45;;;1.58;;
28481;SDS011;15703;49.588;6.260;2022-09-09T14:48:05;3.53;;;1.00;;
28481;SDS011;15703;49.588;6.260;2022-09-09T14:50:28;2.35;;;1.10;;
28481;SDS011;15703;49.588;6.260;2022-09-09T14:52:50;6.03;;;1.20;;
28481;SDS011;15703;49.588;6.260;2022-09-09T14:55:13;5.93;;;1.10;;
28481;SDS011;15703;49.588;6.260;2022-09-09T14:57:36;4.57;;;1.60;;
28481;SDS011;15703;49.588;6.260;2022-09-09T15:00:00;5.20;;;1.08;;
28481;SDS011;15703;49.588;6.260;2022-09-09T15:02:23;3.75;;;1.38;;
28481;SDS011;15703;49.588;6.260;2022-09-09T15:04:45;4.18;;;0.90;;
28481;SDS011;15703;49.588;6.260;2022-09-09T15:07:07;3.85;;;1.42;;
28481;SDS011;15703;49.588;6.260;2022-09-09T15:09:30;5.38;;;1.27;;
28481;SDS011;15703;49.588;6.260;2022-09-09T15:11:52;2.75;;;1.25;;
28481;SDS011;15703;49.588;6.260;2022-09-09T15:14:14;3.83;;;1.15;;
28481;SDS011;15703;49.588;6.260;2022-09-09T15:16:40;4.03;;;1.17;;
28481;SDS011;15703;49.588;6.260;2022-09-09T15:19:02;3.97;;;1.42;;
28481;SDS011;15703;49.588;6.260;2022-09-09T15:21:26;3.55;;;1.35;;
28481;SDS011;15703;49.588;6.260;2022-09-09T15:23:49;4.13;;;1.05;;
28481;SDS011;15703;49.588;6.260;2022-09-09T15:26:12;2.72;;;0.98;;
28481;SDS011;15703;49.588;6.260;2022-09-09T15:28:38;2.97;;;1.10;;
28481;SDS011;15703;49.588;6.260;2022-09-09T15:31:00;4.63;;;1.20;;
28481;SDS011;15703;49.588;6.260;2022-09-09T15:33:27;3.20;;;1.00;;
28481;SDS011;15703;49.588;6.260;2022-09-09T15:35:50;3.33;;;1.10;;
28481;SDS011;15703;49.588;6.260;2022-09-09T15:38:13;4.65;;;1.10;;
28481;SDS011;15703;49.588;6.260;2022-09-09T15:40:36;4.05;;;1.27;;
28481;SDS011;15703;49.588;6.260;2022-09-09T15:42:58;4.53;;;1.42;;
28481;SDS011;15703;49.588;6.260;2022-09-09T15:45:21;2.83;;;1.10;;
28481;SDS011;15703;49.588;6.260;2022-09-09T15:47:43;5.43;;;1.90;;
28481;SDS011;15703;49.588;6.260;2022-09-09T15:50:15;3.97;;;1.42;;
28481;SDS011;15703;49.588;6.260;2022-09-09T15:52:38;3.65;;;1.40;;
28481;SDS011;15703;49.588;6.260;2022-09-09T15:55:00;2.63;;;1.17;;
28481;SDS011;15703;49.588;6.260;2022-09-09T15:57:22;5.18;;;1.20;;
28481;SDS011;15703;49.588;6.260;2022-09-09T15:59:44;5.43;;;1.80;;
28481;SDS011;15703;49.588;6.260;2022-09-09T16:02:08;6.32;;;1.40;;
28481;SDS011;15703;49.588;6.260;2022-09-09T16:04:31;4.22;;;1.92;;
28481;SDS011;15703;49.588;6.260;2022-09-09T16:06:59;2.53;;;1.10;;
28481;SDS011;15703;49.588;6.260;2022-09-09T16:09:21;4.00;;;1.60;;
28481;SDS011;15703;49.588;6.260;2022-09-09T16:11:44;4.30;;;1.50;;
28481;SDS011;15703;49.588;6.260;2022-09-09T16:14:06;4.35;;;1.30;;
28481;SDS011;15703;49.588;6.260;2022-09-09T16:16:29;2.75;;;1.05;;
28481;SDS011;15703;49.588;6.260;2022-09-09T16:18:52;2.85;;;1.00;;
28481;SDS011;15703;49.588;6.260;2022-09-09T16:21:16;2.40;;;1.02;;
28481;SDS011;15703;49.588;6.260;2022-09-09T16:23:43;5.93;;;1.52;;